Time;durP1;ratioP1;P1;durP2;ratioP2;P2;SDS_P1;SDS_P2;PMS_P1;PMS_P2;Temp;Humidity;BMP_temperature;BMP_pressure;BME280_temperature;BME280_humidity;BME280_pressure;Samples;Min_cycle;Max_cycle;Signal;HPM_P1;HPM_P2
2023/06/26 00:04:39;;;;;;;;;;;;;;;23.72;36.29;95742.94;10381823;28;2107;-62
2023/06/26 00:09:39;;;;;;;;;;;;;;;23.72;36.53;95735.00;10398423;28;2098;-62
2023/06/26 00:14:40;;;;;;;;;;;;;;;23.71;36.44;95735.31;10405490;28;1991;-62
2023/06/26 00:19:40;;;;;;;;;;;;;;;23.71;36.53;95732.66;10409480;28;2298;-62
2023/06/26 00:24:40;;;;;;;;;;;;;;;23.67;36.29;95740.41;10411811;28;2491;-62
2023/06/26 00:29:40;;;;;;;;;;;;;;;23.58;36.37;95744.81;10409060;28;1904;-62
2023/06/26 00:34:41;;;;;;;;;;;;;;;23.54;36.46;95754.41;10401011;28;1975;-62
2023/06/26 00:39:41;;;;;;;;;;;;;;;23.49;36.48;95745.78;10400059;28;1960;-62
2023/06/26 00:44:41;;;;;;;;;;;;;;;23.45;36.18;95743.72;10398111;28;4544;-62
2023/06/26 00:49:41;;;;;;;;;;;;;;;23.39;36.05;95746.72;10405384;28;2369;-62
2023/06/26 00:54:42;;;;;;;;;;;;;;;23.36;35.94;95742.03;10409750;28;2027;-62
2023/06/26 00:59:42;;;;;;;;;;;;;;;23.36;36.29;95749.97;10400274;28;2040;-62
2023/06/26 01:04:46;;;;;;;;;;;;;;;23.26;36.05;95742.97;10381589;28;2421;-62
2023/06/26 01:09:47;;;;;;;;;;;;;;;23.24;36.24;95739.03;10389456;28;1901;-62
2023/06/26 01:14:47;;;;;;;;;;;;;;;23.22;36.57;95743.84;10404399;28;2174;-62
2023/06/26 01:19:48;;;;;;;;;;;;;;;23.22;36.69;95730.63;10418028;28;2028;-62
2023/06/26 01:25:09;;;;;;;;;;;;;;;23.22;36.74;95743.84;10394536;28;1943;-61
2023/06/26 01:30:09;;;;;;;;;;;;;;;23.19;36.70;95741.75;10374460;28;1963;-60
2023/06/26 01:35:09;;;;;;;;;;;;;;;23.18;36.83;95737.56;10389532;28;2021;-62
2023/06/26 01:40:10;;;;;;;;;;;;;;;23.13;37.00;95735.78;10400598;28;2061;-61
2023/06/26 01:45:12;;;;;;;;;;;;;;;23.16;37.47;95737.06;10407477;28;4520;-61
2023/06/26 01:50:14;;;;;;;;;;;;;;;23.15;37.44;95725.69;10391370;28;1936;-61
2023/06/26 01:55:35;;;;;;;;;;;;;;;23.16;37.30;95731.78;10384296;28;1917;-62
2023/06/26 02:00:36;;;;;;;;;;;;;;;23.16;37.61;95726.50;10402184;28;2149;-61
2023/06/26 02:05:36;;;;;;;;;;;;;;;23.17;37.57;95730.69;10399847;28;1917;-61
2023/06/26 02:10:36;;;;;;;;;;;;;;;23.16;37.55;95737.06;10395614;28;1944;-61
2023/06/26 02:15:36;;;;;;;;;;;;;;;23.12;37.91;95734.19;10394816;28;1930;-61
2023/06/26 02:20:37;;;;;;;;;;;;;;;23.15;37.84;95735.47;10403002;28;1921;-64
2023/06/26 02:25:37;;;;;;;;;;;;;;;23.16;37.85;95735.19;10400843;28;1968;-61
2023/06/26 02:30:37;;;;;;;;;;;;;;;23.17;37.81;95736.78;10405015;28;2039;-61
2023/06/26 02:35:37;;;;;;;;;;;;;;;23.11;38.18;95735.28;10396899;28;2208;-61
2023/06/26 02:40:38;;;;;;;;;;;;;;;23.07;38.12;95731.66;10412180;28;2240;-61
2023/06/26 02:45:38;;;;;;;;;;;;;;;23.06;38.38;95738.00;10411425;28;4491;-61
2023/06/26 02:50:38;;;;;;;;;;;;;;;23.08;38.41;95735.84;10410042;28;2106;-61
2023/06/26 02:55:39;;;;;;;;;;;;;;;23.02;38.12;95730.97;10405581;28;1979;-61
2023/06/26 03:00:41;;;;;;;;;;;;;;;23.02;38.42;95742.28;10401242;28;1702;-61
2023/06/26 03:05:41;;;;;;;;;;;;;;;22.98;38.49;95730.72;10402156;28;1457;-61
2023/06/26 03:10:41;;;;;;;;;;;;;;;22.95;38.36;95735.81;10400992;28;2016;-61
2023/06/26 03:15:42;;;;;;;;;;;;;;;22.94;38.53;95735.03;10405671;28;2072;-64
2023/06/26 03:20:42;;;;;;;;;;;;;;;22.93;38.86;95730.03;10401278;28;2225;-61
2023/06/26 03:25:42;;;;;;;;;;;;;;;22.88;38.72;95730.88;10404117;28;2142;-61
2023/06/26 03:30:42;;;;;;;;;;;;;;;22.82;39.05;95726.75;10396100;28;1967;-61
2023/06/26 03:35:43;;;;;;;;;;;;;;;22.83;38.75;95733.63;10410188;28;2032;-61
2023/06/26 03:40:43;;;;;;;;;;;;;;;22.85;38.69;95731.47;10406278;28;2414;-61
2023/06/26 03:45:43;;;;;;;;;;;;;;;22.89;38.88;95731.69;10406847;28;4533;-64
2023/06/26 03:50:44;;;;;;;;;;;;;;;22.90;38.96;95733.25;10407233;28;1941;-61
2023/06/26 03:55:45;;;;;;;;;;;;;;;22.91;38.98;95738.25;10407527;28;1968;-61
2023/06/26 04:00:47;;;;;;;;;;;;;;;22.91;38.70;95730.34;10404787;28;1999;-61
2023/06/26 04:05:47;;;;;;;;;;;;;;;22.91;38.78;95730.34;10396173;28;1977;-61
2023/06/26 04:10:47;;;;;;;;;;;;;;;22.91;38.59;95734.81;10403947;28;1956;-61
2023/06/26 04:15:47;;;;;;;;;;;;;;;22.87;38.82;95733.84;10405205;28;1948;-63
2023/06/26 04:21:07;;;;;;;;;;;;;;;22.87;38.73;95731.19;10415334;28;2119;-61
2023/06/26 04:26:08;;;;;;;;;;;;;;;22.82;38.75;95732.03;10407081;28;2114;-62
2023/06/26 04:31:08;;;;;;;;;;;;;;;22.84;38.76;95739.69;10405308;28;2448;-64
2023/06/26 04:36:09;;;;;;;;;;;;;;;22.86;38.72;95734.88;10407157;28;2379;-64
2023/06/26 04:41:09;;;;;;;;;;;;;;;22.87;39.05;95739.13;10406156;28;2092;-63
2023/06/26 04:46:09;;;;;;;;;;;;;;;22.89;38.75;95739.63;10404095;28;2000;-63
2023/06/26 04:51:10;;;;;;;;;;;;;;;22.92;38.69;95741.66;10403470;28;2220;-63
2023/06/26 04:56:11;;;;;;;;;;;;;;;22.89;38.99;95727.19;10406053;28;1976;-64
2023/06/26 05:01:13;;;;;;;;;;;;;;;22.90;39.07;95727.94;10400919;28;1961;-61
2023/06/26 05:06:13;;;;;;;;;;;;;;;22.90;38.77;95736.69;10401225;28;1935;-62
2023/06/26 05:11:13;;;;;;;;;;;;;;;22.93;38.98;95743.25;10397201;28;1963;-61
2023/06/26 05:16:14;;;;;;;;;;;;;;;22.95;38.77;95733.16;10400316;28;2002;-63
2023/06/26 05:21:14;;;;;;;;;;;;;;;22.97;39.10;95737.09;10409647;28;1968;-60
2023/06/26 05:26:15;;;;;;;;;;;;;;;22.98;39.14;95736.00;10390348;28;1949;-61
2023/06/26 05:31:18;;;;;;;;;;;;;;;23.00;38.85;95739.16;10392501;28;2176;-61
2023/06/26 05:36:18;;;;;;;;;;;;;;;23.02;38.88;95739.66;10404367;28;1989;-59
2023/06/26 05:41:19;;;;;;;;;;;;;;;23.04;38.93;95739.38;10401600;28;4415;-59
2023/06/26 05:46:19;;;;;;;;;;;;;;;23.06;39.04;95737.25;10402570;28;1917;-61
2023/06/26 05:51:19;;;;;;;;;;;;;;;23.08;38.56;95738.50;10387127;28;1995;-64
2023/06/26 05:56:20;;;;;;;;;;;;;;;23.09;38.72;95739.28;10393928;28;1979;-63
2023/06/26 06:01:20;;;;;;;;;;;;;;;23.12;38.68;95741.38;10398738;28;1854;-63
2023/06/26 06:06:20;;;;;;;;;;;;;;;23.11;38.50;95742.44;10394238;28;1960;-61
2023/06/26 06:11:21;;;;;;;;;;;;;;;23.15;38.32;95735.47;10392196;28;1979;-62
2023/06/26 06:16:21;;;;;;;;;;;;;;;23.17;38.51;95728.03;10401333;28;2142;-61
2023/06/26 06:21:22;;;;;;;;;;;;;;;23.19;38.59;95731.19;10402429;28;1976;-64
2023/06/26 06:26:22;;;;;;;;;;;;;;;23.23;38.34;95726.88;10404547;28;2281;-65
2023/06/26 06:31:22;;;;;;;;;;;;;;;23.25;38.27;95737.94;10403913;28;2046;-64
2023/06/26 06:36:22;;;;;;;;;;;;;;;23.27;38.35;95733.16;10412256;28;2145;-64
2023/06/26 06:41:23;;;;;;;;;;;;;;;23.32;38.14;95728.63;10405635;28;4375;-66
2023/06/26 06:46:23;;;;;;;;;;;;;;;23.37;38.41;95740.94;10403990;28;2147;-66
2023/06/26 06:51:23;;;;;;;;;;;;;;;23.40;38.30;95738.53;10388335;28;2021;-67
2023/06/26 06:56:23;;;;;;;;;;;;;;;23.48;38.54;95739.69;10403309;28;1996;-67
2023/06/26 07:01:24;;;;;;;;;;;;;;;23.51;38.57;95739.13;10398825;28;2012;-66
2023/06/26 07:06:24;;;;;;;;;;;;;;;23.56;38.59;95736.38;10404955;28;1965;-67
2023/06/26 07:11:24;;;;;;;;;;;;;;;23.59;38.49;95733.16;10400649;28;2416;-66
2023/06/26 07:16:24;;;;;;;;;;;;;;;23.64;38.61;95733.03;10399541;28;2048;-64
2023/06/26 07:21:25;;;;;;;;;;;;;;;23.66;38.41;95730.88;10404542;28;2088;-64
2023/06/26 07:26:25;;;;;;;;;;;;;;;23.69;38.67;95740.91;10396724;28;1950;-65
2023/06/26 07:31:25;;;;;;;;;;;;;;;23.74;38.37;95738.16;10393687;28;1896;-67
2023/06/26 07:36:25;;;;;;;;;;;;;;;23.76;38.63;95730.69;10392171;28;2032;-66
2023/06/26 07:41:26;;;;;;;;;;;;;;;23.79;38.52;95735.41;10389671;28;4355;-66
2023/06/26 07:46:26;;;;;;;;;;;;;;;23.83;39.12;95746.97;10392272;28;1938;-66
2023/06/26 07:51:26;;;;;;;;;;;;;;;23.86;39.10;95735.03;10378110;28;1933;-65
2023/06/26 07:56:27;;;;;;;;;;;;;;;23.90;39.13;95734.16;10389271;28;1947;-66
2023/06/26 08:01:27;;;;;;;;;;;;;;;23.92;39.22;95736.50;10374668;28;2280;-66
2023/06/26 08:06:27;;;;;;;;;;;;;;;23.94;39.20;95737.78;10394881;28;2045;-65
2023/06/26 08:11:28;;;;;;;;;;;;;;;23.94;39.34;95732.47;10394375;28;1909;-66
2023/06/26 08:16:28;;;;;;;;;;;;;;;23.97;39.64;95715.19;10397955;28;1921;-63
2023/06/26 08:21:29;;;;;;;;;;;;;;;23.98;39.43;95722.06;10391519;28;2502;-65
2023/06/26 08:26:29;;;;;;;;;;;;;;;23.99;39.47;95721.78;10389917;28;2013;-66
2023/06/26 08:31:29;;;;;;;;;;;;;;;24.01;39.46;95730.22;10391942;28;1972;-66
2023/06/26 08:36:30;;;;;;;;;;;;;;;24.02;39.48;95723.84;10377046;28;1974;-66
2023/06/26 08:41:30;;;;;;;;;;;;;;;24.05;39.73;95722.50;10385450;28;4443;-67
2023/06/26 08:46:30;;;;;;;;;;;;;;;24.06;39.87;95719.56;10389207;28;1941;-67
2023/06/26 08:51:31;;;;;;;;;;;;;;;24.09;39.89;95726.13;10385698;28;1997;-69
2023/06/26 08:56:38;;;;;;;;;;;;;;;24.09;40.06;95712.88;10390011;28;2054;-67
2023/06/26 09:01:39;;;;;;;;;;;;;;;24.12;39.97;95717.56;10397446;28;1983;-68
2023/06/26 09:06:39;;;;;;;;;;;;;;;24.12;40.05;95710.41;10406998;28;1947;-67
2023/06/26 09:11:39;;;;;;;;;;;;;;;24.15;40.10;95706.41;10389613;28;1931;-66
2023/06/26 09:16:41;;;;;;;;;;;;;;;24.16;39.92;95698.16;10385153;28;2281;-67
2023/06/26 09:21:41;;;;;;;;;;;;;;;24.18;39.92;95695.19;10386135;28;2058;-67
2023/06/26 09:26:42;;;;;;;;;;;;;;;24.18;40.15;95693.34;10389156;28;2006;-67
2023/06/26 09:31:43;;;;;;;;;;;;;;;24.20;40.15;95685.09;10369187;28;1929;-68
2023/06/26 09:36:46;;;;;;;;;;;;;;;24.21;40.32;95682.13;10372462;28;2289;-66
2023/06/26 09:41:46;;;;;;;;;;;;;;;24.22;40.32;95689.03;10387745;28;4525;-68
2023/06/26 09:46:47;;;;;;;;;;;;;;;24.21;40.65;95679.50;10384542;28;1900;-68
2023/06/26 09:51:47;;;;;;;;;;;;;;;24.23;40.38;95682.63;10399245;28;1990;-65
2023/06/26 09:56:47;;;;;;;;;;;;;;;24.25;40.82;95667.22;10373546;28;1930;-66
2023/06/26 10:01:47;;;;;;;;;;;;;;;24.28;41.16;95659.78;10367563;28;1993;-68
2023/06/26 10:06:48;;;;;;;;;;;;;;;24.30;41.49;95668.97;10371498;28;2068;-64
2023/06/26 10:11:51;;;;;;;;;;;;;;;24.33;41.44;95660.44;10385097;28;2277;-63
2023/06/26 10:16:51;;;;;;;;;;;;;;;24.35;41.65;95662.78;10385281;28;1948;-64
2023/06/26 10:21:52;;;;;;;;;;;;;;;24.37;41.74;95656.13;10367208;28;1929;-63
2023/06/26 10:26:55;;;;;;;;;;;;;;;24.49;40.34;95651.06;10394358;28;2009;-67
2023/06/26 10:31:56;;;;;;;;;;;;;;;24.66;38.57;95659.16;10396155;28;1993;-66
2023/06/26 10:37:00;;;;;;;;;;;;;;;24.59;38.68;95660.63;10380590;28;1983;-67
2023/06/26 10:42:08;;;;;;;;;;;;;;;24.50;39.20;95650.00;10394980;28;4462;-68
2023/06/26 10:47:08;;;;;;;;;;;;;;;24.50;39.47;95649.19;10392131;28;2020;-63
2023/06/26 10:52:08;;;;;;;;;;;;;;;24.49;39.57;95650.28;10386211;28;1940;-65
2023/06/26 10:57:09;;;;;;;;;;;;;;;24.50;39.99;95643.91;10384858;28;2271;-65
2023/06/26 11:02:09;;;;;;;;;;;;;;;24.50;39.98;95641.25;10390150;28;1955;-67
2023/06/26 11:07:22;;;;;;;;;;;;;;;24.50;40.05;95649.19;10378977;28;2198;-67
2023/06/26 11:12:40;;;;;;;;;;;;;;;24.50;40.18;95644.69;10396683;28;1972;-67
2023/06/26 11:17:40;;;;;;;;;;;;;;;24.50;40.19;95638.59;10392165;28;2049;-69
2023/06/26 11:22:41;;;;;;;;;;;;;;;24.50;40.17;95634.09;10382154;28;2126;-67
2023/06/26 11:27:41;;;;;;;;;;;;;;;24.51;40.37;95632.19;10392960;28;1969;-69
2023/06/26 11:32:41;;;;;;;;;;;;;;;24.52;40.62;95642.53;10395267;28;2141;-67
2023/06/26 11:37:42;;;;;;;;;;;;;;;24.52;40.85;95633.78;10396145;28;1964;-64
2023/06/26 11:42:42;;;;;;;;;;;;;;;24.54;40.81;95634.25;10391914;28;4839;-67
2023/06/26 11:47:43;;;;;;;;;;;;;;;24.54;40.94;95637.69;10374510;28;2186;-65
2023/06/26 11:52:43;;;;;;;;;;;;;;;24.55;40.66;95622.56;10396893;28;1971;-66
2023/06/26 11:57:48;;;;;;;;;;;;;;;24.55;40.69;95620.72;10393442;28;1553;-66
2023/06/26 12:02:49;;;;;;;;;;;;;;;24.56;40.69;95621.50;10391117;28;1912;-67
2023/06/26 12:07:49;;;;;;;;;;;;;;;24.56;40.75;95601.09;10393607;28;2279;-66
2023/06/26 12:12:50;;;;;;;;;;;;;;;24.57;40.91;95623.84;10394257;28;2031;-67
2023/06/26 12:17:50;;;;;;;;;;;;;;;24.57;40.71;95618.53;10380819;28;2139;-66
2023/06/26 12:22:50;;;;;;;;;;;;;;;24.59;40.99;95615.56;10396083;28;1937;-65
2023/06/26 12:27:51;;;;;;;;;;;;;;;24.59;41.00;95620.88;10388165;28;1963;-66
2023/06/26 12:32:51;;;;;;;;;;;;;;;24.59;41.09;95620.88;10391949;28;2011;-66
2023/06/26 12:37:51;;;;;;;;;;;;;;;24.60;40.91;95617.16;10394665;28;2032;-68
2023/06/26 12:42:53;;;;;;;;;;;;;;;24.62;40.90;95609.69;10377758;28;4458;-66
2023/06/26 12:47:53;;;;;;;;;;;;;;;24.64;41.00;95607.50;10373757;28;2025;-67
2023/06/26 12:52:53;;;;;;;;;;;;;;;24.62;41.22;95604.38;10391588;28;1918;-66
2023/06/26 12:57:54;;;;;;;;;;;;;;;24.65;41.20;95607.19;10372354;28;1996;-67
2023/06/26 13:02:54;;;;;;;;;;;;;;;24.67;41.47;95599.72;10391241;28;2258;-66
2023/06/26 13:07:55;;;;;;;;;;;;;;;24.67;41.46;95591.78;10389291;28;1956;-66
2023/06/26 13:12:55;;;;;;;;;;;;;;;24.70;41.49;95601.00;10374002;28;2108;-65
2023/06/26 13:17:55;;;;;;;;;;;;;;;24.72;41.74;95594.31;10392073;28;2022;-64
2023/06/26 13:22:56;;;;;;;;;;;;;;;24.73;41.74;95598.53;10390528;28;2212;-65
2023/06/26 13:27:56;;;;;;;;;;;;;;;24.74;41.83;95588.72;10369607;28;2345;-65
2023/06/26 13:32:56;;;;;;;;;;;;;;;24.76;41.82;95578.59;10367765;28;2054;-65
2023/06/26 13:37:57;;;;;;;;;;;;;;;24.77;41.83;95580.19;10369256;28;2064;-64
2023/06/26 13:42:57;;;;;;;;;;;;;;;24.78;42.01;95582.53;10388049;28;4432;-66
2023/06/26 13:47:57;;;;;;;;;;;;;;;24.79;42.13;95572.72;10387071;28;2056;-64
2023/06/26 13:52:57;;;;;;;;;;;;;;;24.80;42.00;95575.06;10369857;28;2030;-67
2023/06/26 13:57:58;;;;;;;;;;;;;;;24.81;42.19;95571.31;10384627;28;2374;-65
2023/06/26 14:02:59;;;;;;;;;;;;;;;24.82;42.19;95574.75;10381727;28;2146;-64
2023/06/26 14:08:01;;;;;;;;;;;;;;;24.82;41.98;95564.94;10385427;28;1991;-65
2023/06/26 14:13:05;;;;;;;;;;;;;;;24.84;41.89;95564.63;10379741;28;2071;-67
2023/06/26 14:18:09;;;;;;;;;;;;;;;24.84;41.72;95565.41;10364435;28;1912;-66
2023/06/26 14:23:09;;;;;;;;;;;;;;;24.87;41.46;95558.72;10385436;28;2045;-66
2023/06/26 14:28:09;;;;;;;;;;;;;;;24.85;40.86;95550.28;10392244;28;1942;-65
2023/06/26 14:33:10;;;;;;;;;;;;;;;24.84;40.92;95556.66;10373398;28;1953;-66
2023/06/26 14:38:10;;;;;;;;;;;;;;;24.85;40.92;95553.69;10400592;28;2067;-66
2023/06/26 14:43:10;;;;;;;;;;;;;;;24.85;40.97;95550.28;10387207;28;4510;-66
2023/06/26 14:48:10;;;;;;;;;;;;;;;24.85;40.89;95553.69;10402536;28;1948;-67
2023/06/26 14:53:11;;;;;;;;;;;;;;;24.86;40.88;95554.47;10399485;28;2247;-66
2023/06/26 14:58:11;;;;;;;;;;;;;;;24.85;40.87;95543.09;10399359;28;1953;-66
2023/06/26 15:03:11;;;;;;;;;;;;;;;24.85;40.97;95544.97;10402830;28;1883;-66
2023/06/26 15:08:11;;;;;;;;;;;;;;;24.89;40.26;95538.75;10401493;28;1853;-64
2023/06/26 15:13:12;;;;;;;;;;;;;;;24.96;40.32;95533.00;10396712;28;1969;-66
2023/06/26 15:18:12;;;;;;;;;;;;;;;25.00;40.25;95534.75;10387160;28;1948;-67
2023/06/26 15:23:12;;;;;;;;;;;;;;;24.98;40.32;95534.25;10404820;28;1856;-66
2023/06/26 15:28:12;;;;;;;;;;;;;;;25.01;39.89;95532.88;10403687;28;1878;-66
2023/06/26 15:33:13;;;;;;;;;;;;;;;25.02;39.78;95537.06;10400430;28;1977;-66
2023/06/26 15:38:13;;;;;;;;;;;;;;;25.05;39.20;95520.56;10407041;28;1848;-63
2023/06/26 15:43:13;;;;;;;;;;;;;;;25.06;38.81;95516.06;10392929;28;4552;-63
2023/06/26 15:48:14;;;;;;;;;;;;;;;25.03;39.03;95514.78;10392860;28;2079;-64
2023/06/26 15:53:15;;;;;;;;;;;;;;;25.03;39.02;95512.13;10382932;28;2192;-70
2023/06/26 15:58:16;;;;;;;;;;;;;;;25.06;38.80;95513.41;10407970;28;2067;-69
2023/06/26 16:03:16;;;;;;;;;;;;;;;25.44;37.79;95531.16;10403665;28;2120;-69
2023/06/26 16:08:16;;;;;;;;;;;;;;;25.40;38.62;95537.34;10400492;28;1938;-68
2023/06/26 16:13:18;;;;;;;;;;;;;;;25.48;39.16;95529.44;10399919;28;1926;-67
2023/06/26 16:18:18;;;;;;;;;;;;;;;25.57;39.61;95526.81;10402682;28;1870;-66
2023/06/26 16:23:19;;;;;;;;;;;;;;;25.62;39.75;95514.16;10397505;28;1989;-64
2023/06/26 16:28:19;;;;;;;;;;;;;;;25.61;39.93;95515.25;10396714;28;1855;-69
2023/06/26 16:33:19;;;;;;;;;;;;;;;25.60;39.97;95507.59;10398987;28;1961;-71
2023/06/26 16:38:20;;;;;;;;;;;;;;;25.58;39.82;95517.75;10401040;28;1888;-67
2023/06/26 16:43:20;;;;;;;;;;;;;;;25.57;40.09;95519.63;10402823;28;1847;-66
2023/06/26 16:48:20;;;;;;;;;;;;;;;25.52;40.18;95511.81;10401187;28;2250;-67
2023/06/26 16:53:20;;;;;;;;;;;;;;;25.50;40.46;95514.00;10398757;28;1898;-66
2023/06/26 16:58:21;;;;;;;;;;;;;;;25.48;40.43;95532.09;10394955;28;1895;-68
2023/06/26 17:03:22;;;;;;;;;;;;;;;25.48;40.53;95547.22;10400444;28;1986;-70
2023/06/26 17:08:22;;;;;;;;;;;;;;;25.46;40.60;95533.50;10380735;28;1974;-66
2023/06/26 17:13:22;;;;;;;;;;;;;;;25.40;40.69;95535.50;10401703;28;1931;-66
2023/06/26 17:18:23;;;;;;;;;;;;;;;25.38;40.88;95539.53;10364990;28;1958;-67
2023/06/26 17:23:23;;;;;;;;;;;;;;;25.35;40.94;95548.88;10404319;28;2035;-67
2023/06/26 17:28:23;;;;;;;;;;;;;;;25.34;40.91;95542.03;10395777;28;1955;-66
2023/06/26 17:33:23;;;;;;;;;;;;;;;25.34;40.97;95552.66;10381053;28;1973;-66
2023/06/26 17:38:24;;;;;;;;;;;;;;;25.33;41.05;95551.06;10396576;28;1953;-67
2023/06/26 17:43:24;;;;;;;;;;;;;;;25.31;41.36;95539.97;10405365;28;4576;-66
2023/06/26 17:48:25;;;;;;;;;;;;;;;25.31;41.29;95537.31;10400116;28;1879;-66
2023/06/26 17:53:26;;;;;;;;;;;;;;;25.30;41.53;95538.44;10402715;28;2058;-67
2023/06/26 17:58:26;;;;;;;;;;;;;;;25.28;41.28;95567.16;10400541;28;1851;-66
2023/06/26 18:03:27;;;;;;;;;;;;;;;25.29;41.53;95576.66;10395025;28;1879;-66
2023/06/26 18:08:28;;;;;;;;;;;;;;;25.28;41.73;95569.78;10409229;28;1875;-69
2023/06/26 18:13:29;;;;;;;;;;;;;;;25.29;41.61;95576.66;10406267;28;2028;-67
2023/06/26 18:18:29;;;;;;;;;;;;;;;25.28;41.98;95574.31;10392830;28;1966;-66
2023/06/26 18:23:29;;;;;;;;;;;;;;;25.29;41.99;95607.69;10398138;28;1879;-66
2023/06/26 18:28:30;;;;;;;;;;;;;;;25.28;42.20;95617.56;10414111;28;1893;-66
2023/06/26 18:33:30;;;;;;;;;;;;;;;25.29;42.18;95632.38;10401413;28;1910;-68
2023/06/26 18:38:30;;;;;;;;;;;;;;;25.35;42.65;95641.75;10394915;28;2425;-65
2023/06/26 18:43:30;;;;;;;;;;;;;;;25.41;42.87;95653.06;10397668;28;4493;-69
2023/06/26 18:48:31;;;;;;;;;;;;;;;25.46;42.71;95661.66;10406696;28;1890;-73
2023/06/26 18:53:32;;;;;;;;;;;;;;;25.51;42.88;95679.34;10406388;28;2075;-76
2023/06/26 18:58:32;;;;;;;;;;;;;;;25.54;42.96;95668.09;10401954;28;1859;-75
2023/06/26 19:03:32;;;;;;;;;;;;;;;25.60;42.43;95677.47;10401049;28;1889;-62
2023/06/26 19:08:33;;;;;;;;;;;;;;;25.61;42.88;95666.56;10401030;28;2102;-61
2023/06/26 19:13:33;;;;;;;;;;;;;;;25.64;42.64;95650.00;10391473;28;2093;-65
2023/06/26 19:18:34;;;;;;;;;;;;;;;25.66;42.75;95661.09;10374928;28;2127;-63
2023/06/26 19:23:34;;;;;;;;;;;;;;;25.68;42.85;95655.47;10411876;28;1899;-66
2023/06/26 19:28:35;;;;;;;;;;;;;;;25.72;42.50;95669.69;10404165;28;1909;-68
2023/06/26 19:33:35;;;;;;;;;;;;;;;25.73;42.92;95680.03;10400657;28;1971;-67
2023/06/26 19:38:36;;;;;;;;;;;;;;;25.75;43.31;95696.44;10407473;28;2212;-69
2023/06/26 19:43:36;;;;;;;;;;;;;;;25.77;43.30;95699.56;10412352;28;1949;-67
2023/06/26 19:48:36;;;;;;;;;;;;;;;25.77;43.30;95704.88;10408008;28;2026;-65
2023/06/26 19:53:36;;;;;;;;;;;;;;;25.79;43.27;95715.97;10414602;28;1979;-63
2023/06/26 19:58:37;;;;;;;;;;;;;;;25.74;43.44;95721.41;10409018;28;1879;-64
2023/06/26 20:03:37;;;;;;;;;;;;;;;25.72;43.25;95731.56;10409001;28;1902;-64
2023/06/26 20:08:37;;;;;;;;;;;;;;;25.70;43.46;95743.56;10407804;28;2260;-64
2023/06/26 20:13:38;;;;;;;;;;;;;;;25.68;43.48;95743.09;10411804;28;1910;-64
2023/06/26 20:18:38;;;;;;;;;;;;;;;25.64;43.62;95750.88;10412910;28;1852;-64
2023/06/26 20:23:39;;;;;;;;;;;;;;;25.61;43.58;95746.22;10409490;28;1874;-64
2023/06/26 20:28:40;;;;;;;;;;;;;;;25.57;43.45;95752.44;10408497;28;1890;-64
2023/06/26 20:33:40;;;;;;;;;;;;;;;25.53;43.22;95762.84;10405278;28;2454;-64
2023/06/26 20:38:40;;;;;;;;;;;;;;;25.51;43.19;95761.59;10408036;28;1852;-64
2023/06/26 20:43:41;;;;;;;;;;;;;;;25.47;43.15;95758.75;10409997;28;4490;-64
2023/06/26 20:48:42;;;;;;;;;;;;;;;25.46;43.34;95767.81;10403224;28;1912;-64
2023/06/26 20:53:42;;;;;;;;;;;;;;;25.44;43.28;95777.97;10401509;28;1977;-64
2023/06/26 20:58:42;;;;;;;;;;;;;;;25.42;43.43;95772.16;10400167;28;1823;-64
2023/06/26 21:03:43;;;;;;;;;;;;;;;25.40;43.09;95762.91;10403155;28;1854;-63
2023/06/26 21:08:43;;;;;;;;;;;;;;;25.40;43.00;95773.53;10398249;28;2296;-63
2023/06/26 21:13:43;;;;;;;;;;;;;;;25.37;43.06;95785.53;10401221;28;1977;-63
2023/06/26 21:18:43;;;;;;;;;;;;;;;25.37;43.05;95795.38;10405467;28;1939;-63
2023/06/26 21:23:44;;;;;;;;;;;;;;;25.35;43.24;95793.00;10403436;28;1967;-63
2023/06/26 21:28:44;;;;;;;;;;;;;;;25.34;43.06;95796.75;10404066;28;2305;-63
2023/06/26 21:33:44;;;;;;;;;;;;;;;25.34;43.08;95803.94;10400868;28;1918;-63
2023/06/26 21:38:45;;;;;;;;;;;;;;;25.32;42.80;95814.84;10407099;28;1898;-63
2023/06/26 21:43:45;;;;;;;;;;;;;;;25.32;42.92;95820.16;10402207;28;4493;-63
2023/06/26 21:48:45;;;;;;;;;;;;;;;25.31;42.94;95823.09;10397163;28;1928;-63
2023/06/26 21:53:45;;;;;;;;;;;;;;;25.31;42.95;95831.06;10404301;28;1914;-63
2023/06/26 21:58:46;;;;;;;;;;;;;;;25.29;42.67;95836.66;10403240;28;1960;-63
2023/06/26 22:03:46;;;;;;;;;;;;;;;25.29;42.55;95846.50;10397277;28;1963;-63
2023/06/26 22:08:46;;;;;;;;;;;;;;;25.25;42.27;95851.63;10407555;28;1901;-63
2023/06/26 22:13:46;;;;;;;;;;;;;;;25.23;41.69;95859.09;10400504;28;1963;-63
2023/06/26 22:18:47;;;;;;;;;;;;;;;25.20;41.54;95870.31;10406714;28;1967;-63
2023/06/26 22:23:47;;;;;;;;;;;;;;;25.19;41.28;95873.25;10398523;28;2424;-64
2023/06/26 22:28:47;;;;;;;;;;;;;;;25.16;41.27;95866.69;10401436;28;1969;-62
2023/06/26 22:33:47;;;;;;;;;;;;;;;25.15;41.19;95874.94;10398211;28;1967;-64
2023/06/26 22:38:48;;;;;;;;;;;;;;;25.13;40.94;95879.75;10399357;28;1836;-64
2023/06/26 22:43:48;;;;;;;;;;;;;;;25.11;40.83;95885.38;10400994;28;4454;-64
2023/06/26 22:48:50;;;;;;;;;;;;;;;25.12;40.87;95894.91;10384079;28;1879;-64
2023/06/26 22:53:50;;;;;;;;;;;;;;;25.10;40.62;95890.97;10406271;28;1973;-64
2023/06/26 22:58:50;;;;;;;;;;;;;;;25.08;40.06;95887.84;10412966;28;2030;-64
2023/06/26 23:03:51;;;;;;;;;;;;;;;25.06;39.86;95890.00;10409269;28;2502;-63
2023/06/26 23:08:51;;;;;;;;;;;;;;;25.04;39.66;95884.97;10411123;28;1974;-64
2023/06/26 23:13:51;;;;;;;;;;;;;;;25.02;39.65;95890.59;10393544;28;1931;-64
2023/06/26 23:18:52;;;;;;;;;;;;;;;25.00;39.39;95900.72;10407081;28;2340;-64
2023/06/26 23:23:53;;;;;;;;;;;;;;;24.99;39.05;95909.78;10411455;28;1875;-64
2023/06/26 23:28:53;;;;;;;;;;;;;;;24.96;38.71;95902.41;10415053;28;1894;-64
2023/06/26 23:33:53;;;;;;;;;;;;;;;24.96;38.76;95906.91;10405253;28;1984;-64
2023/06/26 23:38:54;;;;;;;;;;;;;;;24.93;38.54;95907.50;10398056;28;1890;-64
2023/06/26 23:43:54;;;;;;;;;;;;;;;24.92;38.54;95900.63;10413728;28;4439;-64
2023/06/26 23:48:54;;;;;;;;;;;;;;;24.91;38.38;95912.34;10399289;28;1883;-64
2023/06/26 23:53:54;;;;;;;;;;;;;;;24.89;38.08;95909.94;10402203;28;1938;-64
2023/06/26 23:58:55;;;;;;;;;;;;;;;24.90;38.20;95918.69;10402080;28;1492;-64
